Terminal Aerodrome Forecast
Issued by NWS

Home | Current Version | Previous Version | Text Only | Print | Product List | Glossary Off
Versions: 1 2 3 4 5 6 7 8 9 10 11 12 13 14 15 16 17 18 19 20 21 22 23 24 25 26 27 28 29

000
FTUS43 KABR 211727
TAFATY
TAF
KATY 211727Z 2118/2218 32018G27KT P6SM OVC017
     FM212100 32022G31KT P6SM BKN045
     FM220200 28006KT P6SM BKN100
     FM221100 29005KT P6SM SCT200
     FM221500 35007KT P6SM BKN120=

USA.gov is the U.S. government's official web portal to all federal, state and local government web resources and services.